Kanayamaru — JG5114 — position and weather

sailwx.info

Track history (hours):
 
Tides and Currents Weather Stations Pressure Air Temp Water Temp Dewpoint Dewpoint Depression Visibility Wind Speed Wind Dir Waves Ship Positions

Kanayamaru

Last reported at 2018-Jun-21 11:11 UTC. Time now 2018-Jun-21 19:54 UTC.
Position N 35°13' E 139°43'.

Length 77 m; draft 3.2 m.

Type: Passenger vessel. MMSI: 431000238.

Date/timePositionNaut miles runAvg speedWind from/ knotsBaromVisibWave heightAir tempDewpointWater temp
2018-Jun-21 11:11N 35°13' E 139°43'1 5.0
2018-Jun-21 10:58N 35°13' E 139°44'510.5
2018-Jun-21 10:30N 35°10' E 139°49'0 0.0
2018-Jun-21 10:01N 35°10' E 139°49'4 7.8
2018-Jun-21 09:30N 35°13' E 139°45'2 4.1
2018-Jun-21 09:00N 35°13' E 139°43'4 8.9
2018-Jun-21 08:30N 35°11' E 139°48'2 3.0
2018-Jun-21 08:00N 35°10' E 139°49'5 9.9
2018-Jun-21 07:29N 35°13' E 139°44'1 1.6
2018-Jun-21 07:00N 35°13' E 139°43'5 9.0
2018-Jun-21 06:30N 35°11' E 139°48'1 2.6
2018-Jun-21 06:01N 35°10' E 139°49'0 0.0
2018-Jun-21 05:30N 35°10' E 139°49'5 9.6
2018-Jun-21 05:00N 35°13' E 139°44'1 2.2
2018-Jun-21 04:31N 35°13' E 139°43'0 0.0
2018-Jun-21 04:00N 35°13' E 139°43'1 2.0
2018-Jun-21 03:28N 35°13' E 139°44'510.6
2018-Jun-21 03:01N 35°10' E 139°49'0 0.0
2018-Jun-21 02:30N 35°10' E 139°49'0 0.0
2018-Jun-21 02:00N 35°10' E 139°49'510.4
2018-Jun-21 01:30N 35°13' E 139°44'1 1.4
2018-Jun-21 01:00N 35°13' E 139°43'4 8.8
2018-Jun-21 00:30N 35°11' E 139°48'1 3.0
2018-Jun-21 00:01N 35°10' E 139°49'5 9.7
2018-Jun-20 23:30N 35°13' E 139°44'1 2.0
2018-Jun-20 23:00N 35°13' E 139°43'4 7.0
2018-Jun-20 22:30N 35°12' E 139°47'2 4.8
2018-Jun-20 22:00N 35°10' E 139°49'5 9.9
2018-Jun-20 21:30N 35°13' E 139°44'1 1.9
2018-Jun-20 21:00N 35°13' E 139°43'0 0.0
2018-Jun-20 11:08N 35°13' E 139°43'1 6.9
2018-Jun-20 10:56N 35°13' E 139°45'510.6
2018-Jun-20 10:30N 35°10' E 139°49'0 0.0
2018-Jun-20 09:59N 35°10' E 139°49'4 8.2
2018-Jun-20 09:30N 35°13' E 139°45'2 4.1
2018-Jun-20 09:01N 35°13' E 139°43'4 8.7
2018-Jun-20 08:30N 35°11' E 139°48'1 3.0
2018-Jun-20 08:00N 35°10' E 139°49'6 9.0
2018-Jun-20 07:21N 35°13' E 139°43'0 0.0
2018-Jun-20 07:00N 35°13' E 139°43'4 8.7
2018-Jun-20 06:30N 35°11' E 139°48'1 2.9
2018-Jun-20 06:00N 35°10' E 139°49'0 0.0
2018-Jun-20 05:30N 35°10' E 139°49'6 9.5
2018-Jun-20 04:53N 35°13' E 139°43'0 0.3
2018-Jun-20 04:30N 35°13' E 139°43'0 0.0
2018-Jun-20 04:01N 35°13' E 139°43'1 2.1
2018-Jun-20 03:30N 35°13' E 139°44'5 9.9
2018-Jun-20 03:00N 35°10' E 139°49'0 0.0
2018-Jun-20 02:30N 35°10' E 139°49'0 0.0
2018-Jun-20 02:00N 35°10' E 139°49'5 9.6
2018-Jun-20 01:30N 35°13' E 139°44'1 2.0
2018-Jun-20 00:59N 35°13' E 139°43'4 8.9
2018-Jun-20 00:30N 35°11' E 139°48'2 3.1
2018-Jun-20 00:01N 35°10' E 139°49'5 9.4
2018-Jun-19 23:30N 35°13' E 139°44'1 2.3
2018-Jun-19 23:01N 35°13' E 139°43'3 6.6
2018-Jun-19 22:31N 35°12' E 139°46'3 5.1
2018-Jun-19 22:00N 35°10' E 139°49'5 9.5
2018-Jun-19 21:31N 35°13' E 139°44'1 2.3
2018-Jun-19 21:00N 35°13' E 139°43'0 0.0
2018-Jun-19 11:07N 35°13' E 139°43'0 4.1
2018-Jun-19 11:00N 35°13' E 139°43'511.0
2018-Jun-19 10:30N 35°10' E 139°49'0 0.0
2018-Jun-19 10:00N 35°10' E 139°49'4 7.9
2018-Jun-19 09:28N 35°13' E 139°45'2 3.6
2018-Jun-19 09:01N 35°13' E 139°43'4 8.5
2018-Jun-19 08:30N 35°11' E 139°47'2 3.2
2018-Jun-19 08:00N 35°10' E 139°49'5 9.5
2018-Jun-19 07:30N 35°13' E 139°44'1 2.2
2018-Jun-19 07:00N 35°13' E 139°43'4 8.8
2018-Jun-19 06:30N 35°11' E 139°48'1 2.8
2018-Jun-19 06:00N 35°10' E 139°49'0 0.0
2018-Jun-19 05:30N 35°10' E 139°49'510.1
2018-Jun-19 04:57N 35°13' E 139°43'0 1.0
2018-Jun-19 04:30N 35°13' E 139°43'0 0.0
2018-Jun-19 04:00N 35°13' E 139°43'1 2.0
2018-Jun-19 03:29N 35°13' E 139°44'510.3
2018-Jun-19 03:00N 35°10' E 139°49'0 0.0
2018-Jun-19 02:30N 35°10' E 139°49'0 0.0
2018-Jun-19 02:00N 35°10' E 139°49'5 9.8
2018-Jun-19 01:30N 35°13' E 139°44'1 2.0
2018-Jun-19 01:00N 35°13' E 139°43'5 8.9
2018-Jun-19 00:30N 35°11' E 139°48'1 2.7
2018-Jun-19 00:00N 35°10' E 139°49'510.1
2018-Jun-18 23:30N 35°13' E 139°44'1 1.7
2018-Jun-18 23:00N 35°13' E 139°43'4 7.4
2018-Jun-18 22:30N 35°12' E 139°47'2 4.4
2018-Jun-18 22:01N 35°10' E 139°49'5 9.7
2018-Jun-18 21:30N 35°13' E 139°44'1 2.0
2018-Jun-18 21:00N 35°13' E 139°43'0 0.0
2018-Jun-18 11:10N 35°13' E 139°43'0 2.6
2018-Jun-18 11:01N 35°13' E 139°43'610.9
2018-Jun-18 10:30N 35°10' E 139°49'0 0.0
2018-Jun-18 10:00N 35°10' E 139°49'4 8.1
2018-Jun-18 09:30N 35°13' E 139°45'2 4.1
2018-Jun-18 09:00N 35°13' E 139°43'4 8.8
2018-Jun-18 08:30N 35°11' E 139°48'1 2.9
2018-Jun-18 08:00N 35°10' E 139°49'5 9.7
2018-Jun-18 07:30N 35°13' E 139°44'1 2.0
2018-Jun-18 06:59N 35°13' E 139°43'4 9.3
2018-Jun-18 06:30N 35°11' E 139°48'2 3.0
2018-Jun-18 06:00N 35°10' E 139°49'0 0.0
2018-Jun-18 05:30N 35°10' E 139°49'5 9.8
2018-Jun-18 05:00N 35°13' E 139°44'1 2.0
2018-Jun-18 04:30N 35°13' E 139°43'0 0.0
2018-Jun-18 04:00N 35°13' E 139°43'1 1.9
2018-Jun-18 03:29N 35°13' E 139°44'510.4
2018-Jun-18 03:00N 35°10' E 139°49'0 0.0
2018-Jun-18 02:30N 35°10' E 139°49'0 0.0
2018-Jun-18 02:00N 35°10' E 139°49'6 9.9
2018-Jun-18 01:27N 35°13' E 139°43'0 1.0
2018-Jun-18 01:00N 35°13' E 139°43'4 9.0
2018-Jun-18 00:30N 35°11' E 139°48'1 3.0
2018-Jun-18 00:00N 35°10' E 139°49'5 9.9
2018-Jun-17 23:28N 35°13' E 139°44'1 1.3
2018-Jun-17 23:00N 35°13' E 139°43'4 7.0
2018-Jun-17 22:29N 35°11' E 139°47'2 4.6
2018-Jun-17 22:00N 35°10' E 139°49'5 9.9
2018-Jun-17 21:30N 35°13' E 139°44'1 1.8
2018-Jun-17 21:00N 35°13' E 139°43'0 0.0
2018-Jun-17 11:11N 35°13' E 139°43'1 4.6
2018-Jun-17 10:58N 35°13' E 139°44'510.6
2018-Jun-17 10:30N 35°10' E 139°49'0 0.0
2018-Jun-17 10:00N 35°10' E 139°49'4 8.0
2018-Jun-17 09:30N 35°13' E 139°45'2 3.9
2018-Jun-17 09:00N 35°13' E 139°43'5 9.4
2018-Jun-17 08:30N 35°11' E 139°48'1 2.3
2018-Jun-17 08:00N 35°10' E 139°49'5 9.9
2018-Jun-17 07:30N 35°13' E 139°44'1 2.0
2018-Jun-17 07:00N 35°13' E 139°43'5 8.9
2018-Jun-17 06:30N 35°11' E 139°48'1 2.8
2018-Jun-17 06:00N 35°10' E 139°49'5 9.9
2018-Jun-17 05:30N 35°13' E 139°44'1 1.8
2018-Jun-17 05:00N 35°13' E 139°43'4 7.2
2018-Jun-17 04:30N 35°12' E 139°47'2 4.6
2018-Jun-17 04:00N 35°10' E 139°49'4 7.8
2018-Jun-17 03:30N 35°12' E 139°45'2 4.1
2018-Jun-17 03:00N 35°13' E 139°43'5 9.0
2018-Jun-17 02:30N 35°11' E 139°48'1 2.4
2018-Jun-17 01:59N 35°10' E 139°49'510.5
2018-Jun-17 01:29N 35°13' E 139°44'1 1.4
2018-Jun-17 01:00N 35°13' E 139°43'4 8.7
2018-Jun-17 00:30N 35°11' E 139°48'2 3.0
2018-Jun-17 00:00N 35°10' E 139°49'610.0
2018-Jun-16 23:25N 35°13' E 139°43'0 0.6
2018-Jun-16 23:00N 35°13' E 139°43'3 6.7
2018-Jun-16 22:30N 35°12' E 139°47'3 5.1
2018-Jun-16 22:00N 35°10' E 139°49'5 9.9
2018-Jun-16 21:27N 35°13' E 139°43'0 1.0
2018-Jun-16 21:00N 35°13' E 139°43'0 0.0
2018-Jun-16 11:08N 35°13' E 139°43'1 6.1
2018-Jun-16 10:57N 35°13' E 139°44'510.8
2018-Jun-16 10:30N 35°10' E 139°49'0 0.0
2018-Jun-16 10:00N 35°10' E 139°49'4 7.8
2018-Jun-16 09:30N 35°13' E 139°45'2 4.0
2018-Jun-16 09:00N 35°13' E 139°43'4 8.6
2018-Jun-16 08:30N 35°11' E 139°48'2 3.2
2018-Jun-16 08:00N 35°10' E 139°49'510.1
2018-Jun-16 07:28N 35°13' E 139°44'1 1.2
2018-Jun-16 07:00N 35°13' E 139°43'5 8.8
2018-Jun-16 06:29N 35°11' E 139°48'1 2.7
2018-Jun-16 06:00N 35°10' E 139°49'5 9.7
2018-Jun-16 05:30N 35°13' E 139°44'1 2.1
2018-Jun-16 05:00N 35°13' E 139°43'4 7.0
2018-Jun-16 04:30N 35°12' E 139°47'2 4.5
2018-Jun-16 03:59N 35°10' E 139°49'5 9.0
2018-Jun-16 03:29N 35°13' E 139°44'1 2.7
2018-Jun-16 03:00N 35°13' E 139°43'4 8.9
2018-Jun-16 02:31N 35°11' E 139°48'1 2.8
2018-Jun-16 02:00N 35°10' E 139°49'6 9.5
2018-Jun-16 01:24N 35°13' E 139°43'0 0.3
2018-Jun-16 01:00N 35°13' E 139°43'4 8.7
2018-Jun-16 00:30N 35°11' E 139°48'2 3.0
2018-Jun-16 00:00N 35°10' E 139°49'5 9.8
2018-Jun-15 23:30N 35°13' E 139°44'1 2.0
2018-Jun-15 23:00N 35°13' E 139°43'3 6.7
2018-Jun-15 22:30N 35°12' E 139°47'3 5.0
2018-Jun-15 22:00N 35°10' E 139°49'5 9.7
2018-Jun-15 21:30N 35°13' E 139°44'1 2.0
2018-Jun-15 21:00N 35°13' E 139°43'0 0.0
2018-Jun-15 11:09N 35°13' E 139°43'1 6.0
2018-Jun-15 10:59N 35°13' E 139°44'510.0
2018-Jun-15 10:29N 35°10' E 139°49'0 0.0
2018-Jun-15 10:00N 35°10' E 139°49'4 7.9
2018-Jun-15 09:30N 35°13' E 139°45'2 4.0
2018-Jun-15 09:00N 35°13' E 139°43'4 8.9
2018-Jun-15 08:30N 35°11' E 139°48'1 2.8
2018-Jun-15 08:00N 35°10' E 139°49'5 9.6
2018-Jun-15 07:30N 35°13' E 139°44'1 2.3
2018-Jun-15 07:00N 35°13' E 139°43'4 8.9
2018-Jun-15 06:30N 35°11' E 139°48'1 2.9
2018-Jun-15 06:00N 35°10' E 139°49'0 0.0
2018-Jun-15 05:30N 35°10' E 139°49'6 9.2
2018-Jun-15 04:52N 35°13' E 139°43'0 0.1
2018-Jun-15 04:30N 35°13' E 139°43'0 0.0
2018-Jun-15 04:00N 35°13' E 139°43'1 1.8
2018-Jun-15 03:28N 35°13' E 139°44'510.7
2018-Jun-15 03:00N 35°10' E 139°49'0 0.0
2018-Jun-15 02:30N 35°10' E 139°49'0 0.0
2018-Jun-15 02:00N 35°10' E 139°49'5 9.9
2018-Jun-15 01:30N 35°13' E 139°44'1 1.8
2018-Jun-15 01:00N 35°13' E 139°43'5 9.1
2018-Jun-15 00:30N 35°11' E 139°48'1 2.6
2018-Jun-15 00:01N 35°10' E 139°49'5 9.8
2018-Jun-14 23:30N 35°13' E 139°44'1 1.8
2018-Jun-14 23:00N 35°13' E 139°43'4 7.2
2018-Jun-14 22:30N 35°12' E 139°47'2 4.6
2018-Jun-14 22:00N 35°10' E 139°49'5 9.9
2018-Jun-14 21:28N 35°13' E 139°44'1 1.2
2018-Jun-14 21:00N 35°13' E 139°43'0 0.0
2018-Jun-14 11:12N 35°13' E 139°43'1 5.0
2018-Jun-14 10:59N 35°13' E 139°44'510.1
2018-Jun-14 10:30N 35°10' E 139°49'0 0.0
2018-Jun-14 10:00N 35°10' E 139°49'4 7.8
2018-Jun-14 09:30N 35°13' E 139°45'2 4.0
2018-Jun-14 09:01N 35°13' E 139°43'5 9.0
2018-Jun-14 08:29N 35°11' E 139°48'1 2.6
2018-Jun-14 08:00N 35°10' E 139°49'610.2
2018-Jun-14 07:28N 35°13' E 139°43'0 0.9
2018-Jun-14 07:00N 35°13' E 139°43'4 8.9
2018-Jun-14 06:30N 35°11' E 139°48'2 3.0
2018-Jun-14 06:00N 35°10' E 139°49'0 0.0
2018-Jun-14 05:29N 35°10' E 139°49'5 9.8
2018-Jun-14 05:00N 35°13' E 139°44'1 2.2
2018-Jun-14 04:29N 35°13' E 139°43'0 0.0
2018-Jun-14 04:00N 35°13' E 139°43'1 2.0
2018-Jun-14 03:29N 35°13' E 139°44'510.5
2018-Jun-14 03:00N 35°10' E 139°49'0 0.0
2018-Jun-14 02:30N 35°10' E 139°49'0 0.0
2018-Jun-14 02:00N 35°10' E 139°49'6 9.7
2018-Jun-14 01:24N 35°13' E 139°43'0 0.3
2018-Jun-14 01:00N 35°13' E 139°43'5 8.8
2018-Jun-14 00:29N 35°11' E 139°48'1 2.7
2018-Jun-14 00:00N 35°10' E 139°49'5 9.9
2018-Jun-13 23:30N 35°13' E 139°44'1 1.8
2018-Jun-13 23:00N 35°13' E 139°43'4 7.0
2018-Jun-13 22:30N 35°11' E 139°46'2 4.7
2018-Jun-13 22:00N 35°10' E 139°49'510.0
2018-Jun-13 21:30N 35°13' E 139°44'1 2.0
2018-Jun-13 21:00N 35°13' E 139°43'0 0.0
2018-Jun-13 11:10N 35°13' E 139°43'1 4.7
2018-Jun-13 10:59N 35°13' E 139°44'510.4
2018-Jun-13 10:30N 35°10' E 139°49'0 0.0
2018-Jun-13 10:00N 35°10' E 139°49'4 7.5
2018-Jun-13 09:30N 35°12' E 139°45'2 4.3
2018-Jun-13 09:00N 35°13' E 139°43'4 8.8
2018-Jun-13 08:30N 35°11' E 139°48'2 3.0
2018-Jun-13 08:00N 35°10' E 139°49'5 9.6
2018-Jun-13 07:30N 35°13' E 139°44'1 2.1
2018-Jun-13 07:00N 35°13' E 139°43'4 8.5
2018-Jun-13 06:30N 35°11' E 139°48'2 3.2
2018-Jun-13 06:00N 35°10' E 139°49'0 0.0
2018-Jun-13 05:30N 35°10' E 139°49'5 9.8
2018-Jun-13 05:00N 35°13' E 139°44'1 1.8
2018-Jun-13 04:30N 35°13' E 139°43'0 0.0
2018-Jun-13 04:00N 35°13' E 139°43'1 2.3
2018-Jun-13 03:30N 35°13' E 139°44'5 9.7
2018-Jun-13 03:00N 35°10' E 139°49'0 0.0
2018-Jun-13 02:30N 35°10' E 139°49'0 0.0
2018-Jun-13 02:00N 35°10' E 139°49'5 9.9
2018-Jun-13 01:29N 35°13' E 139°44'1 1.7
2018-Jun-13 01:00N 35°13' E 139°43'4 8.8
2018-Jun-13 00:30N 35°11' E 139°48'1 2.8
2018-Jun-13 00:00N 35°10' E 139°49'5 9.9
2018-Jun-12 23:30N 35°13' E 139°44'1 1.9
2018-Jun-12 23:00N 35°13' E 139°43'4 7.5
2018-Jun-12 22:30N 35°12' E 139°47'2 4.5
2018-Jun-12 22:00N 35°10' E 139°49'5 9.9
2018-Jun-12 21:30N 35°13' E 139°44'1 1.9
2018-Jun-12 21:00N 35°13' E 139°43'0 0.0
2018-Jun-12 11:08N 35°13' E 139°43'1 5.4
2018-Jun-12 10:59N 35°13' E 139°44'510.6
2018-Jun-12 10:30N 35°10' E 139°49'0 0.0
2018-Jun-12 10:00N 35°10' E 139°49'4 7.7
2018-Jun-12 09:30N 35°12' E 139°45'2 3.9
2018-Jun-12 09:00N 35°13' E 139°43'4 8.9
2018-Jun-12 08:30N 35°11' E 139°48'2 3.0
2018-Jun-12 08:00N 35°10' E 139°49'5 9.5
2018-Jun-12 07:30N 35°13' E 139°44'1 2.3
2018-Jun-12 07:00N 35°13' E 139°43'4 8.5
2018-Jun-12 06:30N 35°11' E 139°48'2 3.2
2018-Jun-12 06:00N 35°10' E 139°49'0 0.0
2018-Jun-12 05:30N 35°10' E 139°49'5 9.8
2018-Jun-12 05:00N 35°13' E 139°44'1 2.0
2018-Jun-12 04:30N 35°13' E 139°43'0 0.0
2018-Jun-12 04:00N 35°13' E 139°43'1 1.9
2018-Jun-12 03:28N 35°13' E 139°44'510.7
2018-Jun-12 03:00N 35°10' E 139°49'0 0.0
2018-Jun-12 02:30N 35°10' E 139°49'0 0.0
2018-Jun-12 02:00N 35°10' E 139°49'5 9.8
2018-Jun-12 01:30N 35°13' E 139°44'1 2.2
2018-Jun-12 01:00N 35°13' E 139°43'4 8.8
2018-Jun-12 00:30N 35°11' E 139°48'1 2.9
2018-Jun-12 00:00N 35°10' E 139°49'5 9.7
2018-Jun-11 23:30N 35°13' E 139°44'1 2.0
2018-Jun-11 23:00N 35°13' E 139°43'4 7.2
2018-Jun-11 22:30N 35°12' E 139°47'2 4.5
2018-Jun-11 22:00N 35°10' E 139°49'611.2
2018-Jun-11 21:30N 35°13' E 139°43'0 0.7
2018-Jun-11 21:00N 35°13' E 139°43'  
Track history (hours):
 
Tides and Currents Weather Stations Pressure Air Temp Water Temp Dewpoint Dewpoint Depression Visibility Wind Speed Wind Dir Waves Ship Positions

Kanayamaru

Last reported at 2018-Jun-21 11:11 UTC. Time now 2018-Jun-21 19:54 UTC.
Position N 35°13' E 139°43'.

Length 77 m; draft 3.2 m.

Type: Passenger vessel. MMSI: 431000238.

Date/timePositionNaut miles runAvg speedWind from/ knotsBaromVisibWave heightAir tempDewpointWater temp
2018-Jun-21 11:11N 35°13' E 139°43'1 5.0
2018-Jun-21 10:58N 35°13' E 139°44'510.5
2018-Jun-21 10:30N 35°10' E 139°49'0 0.0
2018-Jun-21 10:01N 35°10' E 139°49'4 7.8
2018-Jun-21 09:30N 35°13' E 139°45'2 4.1
2018-Jun-21 09:00N 35°13' E 139°43'4 8.9
2018-Jun-21 08:30N 35°11' E 139°48'2 3.0
2018-Jun-21 08:00N 35°10' E 139°49'5 9.9
2018-Jun-21 07:29N 35°13' E 139°44'1 1.6
2018-Jun-21 07:00N 35°13' E 139°43'5 9.0
2018-Jun-21 06:30N 35°11' E 139°48'1 2.6
2018-Jun-21 06:01N 35°10' E 139°49'0 0.0
2018-Jun-21 05:30N 35°10' E 139°49'5 9.6
2018-Jun-21 05:00N 35°13' E 139°44'1 2.2
2018-Jun-21 04:31N 35°13' E 139°43'0 0.0
2018-Jun-21 04:00N 35°13' E 139°43'1 2.0
2018-Jun-21 03:28N 35°13' E 139°44'510.6
2018-Jun-21 03:01N 35°10' E 139°49'0 0.0
2018-Jun-21 02:30N 35°10' E 139°49'0 0.0
2018-Jun-21 02:00N 35°10' E 139°49'510.4
2018-Jun-21 01:30N 35°13' E 139°44'1 1.4
2018-Jun-21 01:00N 35°13' E 139°43'4 8.8
2018-Jun-21 00:30N 35°11' E 139°48'1 3.0
2018-Jun-21 00:01N 35°10' E 139°49'5 9.7
2018-Jun-20 23:30N 35°13' E 139°44'1 2.0
2018-Jun-20 23:00N 35°13' E 139°43'4 7.0
2018-Jun-20 22:30N 35°12' E 139°47'2 4.8
2018-Jun-20 22:00N 35°10' E 139°49'5 9.9
2018-Jun-20 21:30N 35°13' E 139°44'1 1.9
2018-Jun-20 21:00N 35°13' E 139°43'0 0.0
2018-Jun-20 11:08N 35°13' E 139°43'1 6.9
2018-Jun-20 10:56N 35°13' E 139°45'510.6
2018-Jun-20 10:30N 35°10' E 139°49'0 0.0
2018-Jun-20 09:59N 35°10' E 139°49'4 8.2
2018-Jun-20 09:30N 35°13' E 139°45'2 4.1
2018-Jun-20 09:01N 35°13' E 139°43'4 8.7
2018-Jun-20 08:30N 35°11' E 139°48'1 3.0
2018-Jun-20 08:00N 35°10' E 139°49'6 9.0
2018-Jun-20 07:21N 35°13' E 139°43'0 0.0
2018-Jun-20 07:00N 35°13' E 139°43'4 8.7
2018-Jun-20 06:30N 35°11' E 139°48'1 2.9
2018-Jun-20 06:00N 35°10' E 139°49'0 0.0
2018-Jun-20 05:30N 35°10' E 139°49'6 9.5
2018-Jun-20 04:53N 35°13' E 139°43'0 0.3
2018-Jun-20 04:30N 35°13' E 139°43'0 0.0
2018-Jun-20 04:01N 35°13' E 139°43'1 2.1
2018-Jun-20 03:30N 35°13' E 139°44'5 9.9
2018-Jun-20 03:00N 35°10' E 139°49'0 0.0
2018-Jun-20 02:30N 35°10' E 139°49'0 0.0
2018-Jun-20 02:00N 35°10' E 139°49'5 9.6
2018-Jun-20 01:30N 35°13' E 139°44'1 2.0
2018-Jun-20 00:59N 35°13' E 139°43'4 8.9
2018-Jun-20 00:30N 35°11' E 139°48'2 3.1
2018-Jun-20 00:01N 35°10' E 139°49'5 9.4
2018-Jun-19 23:30N 35°13' E 139°44'1 2.3
2018-Jun-19 23:01N 35°13' E 139°43'3 6.6
2018-Jun-19 22:31N 35°12' E 139°46'3 5.1
2018-Jun-19 22:00N 35°10' E 139°49'5 9.5
2018-Jun-19 21:31N 35°13' E 139°44'1 2.3
2018-Jun-19 21:00N 35°13' E 139°43'0 0.0
2018-Jun-19 11:07N 35°13' E 139°43'0 4.1
2018-Jun-19 11:00N 35°13' E 139°43'511.0
2018-Jun-19 10:30N 35°10' E 139°49'0 0.0
2018-Jun-19 10:00N 35°10' E 139°49'4 7.9
2018-Jun-19 09:28N 35°13' E 139°45'2 3.6
2018-Jun-19 09:01N 35°13' E 139°43'4 8.5
2018-Jun-19 08:30N 35°11' E 139°47'2 3.2
2018-Jun-19 08:00N 35°10' E 139°49'5 9.5
2018-Jun-19 07:30N 35°13' E 139°44'1 2.2
2018-Jun-19 07:00N 35°13' E 139°43'4 8.8
2018-Jun-19 06:30N 35°11' E 139°48'1 2.8
2018-Jun-19 06:00N 35°10' E 139°49'0 0.0
2018-Jun-19 05:30N 35°10' E 139°49'510.1
2018-Jun-19 04:57N 35°13' E 139°43'0 1.0
2018-Jun-19 04:30N 35°13' E 139°43'0 0.0
2018-Jun-19 04:00N 35°13' E 139°43'1 2.0
2018-Jun-19 03:29N 35°13' E 139°44'510.3
2018-Jun-19 03:00N 35°10' E 139°49'0 0.0
2018-Jun-19 02:30N 35°10' E 139°49'0 0.0
2018-Jun-19 02:00N 35°10' E 139°49'5 9.8
2018-Jun-19 01:30N 35°13' E 139°44'1 2.0
2018-Jun-19 01:00N 35°13' E 139°43'5 8.9
2018-Jun-19 00:30N 35°11' E 139°48'1 2.7
2018-Jun-19 00:00N 35°10' E 139°49'510.1
2018-Jun-18 23:30N 35°13' E 139°44'1 1.7
2018-Jun-18 23:00N 35°13' E 139°43'4 7.4
2018-Jun-18 22:30N 35°12' E 139°47'2 4.4
2018-Jun-18 22:01N 35°10' E 139°49'5 9.7
2018-Jun-18 21:30N 35°13' E 139°44'1 2.0
2018-Jun-18 21:00N 35°13' E 139°43'0 0.0
2018-Jun-18 11:10N 35°13' E 139°43'0 2.6
2018-Jun-18 11:01N 35°13' E 139°43'610.9
2018-Jun-18 10:30N 35°10' E 139°49'0 0.0
2018-Jun-18 10:00N 35°10' E 139°49'4 8.1
2018-Jun-18 09:30N 35°13' E 139°45'2 4.1
2018-Jun-18 09:00N 35°13' E 139°43'4 8.8
2018-Jun-18 08:30N 35°11' E 139°48'1 2.9
2018-Jun-18 08:00N 35°10' E 139°49'5 9.7
2018-Jun-18 07:30N 35°13' E 139°44'1 2.0
2018-Jun-18 06:59N 35°13' E 139°43'4 9.3
2018-Jun-18 06:30N 35°11' E 139°48'2 3.0
2018-Jun-18 06:00N 35°10' E 139°49'0 0.0
2018-Jun-18 05:30N 35°10' E 139°49'5 9.8
2018-Jun-18 05:00N 35°13' E 139°44'1 2.0
2018-Jun-18 04:30N 35°13' E 139°43'0 0.0
2018-Jun-18 04:00N 35°13' E 139°43'1 1.9
2018-Jun-18 03:29N 35°13' E 139°44'510.4
2018-Jun-18 03:00N 35°10' E 139°49'0 0.0
2018-Jun-18 02:30N 35°10' E 139°49'0 0.0
2018-Jun-18 02:00N 35°10' E 139°49'6 9.9
2018-Jun-18 01:27N 35°13' E 139°43'0 1.0
2018-Jun-18 01:00N 35°13' E 139°43'4 9.0
2018-Jun-18 00:30N 35°11' E 139°48'1 3.0
2018-Jun-18 00:00N 35°10' E 139°49'5 9.9
2018-Jun-17 23:28N 35°13' E 139°44'1 1.3
2018-Jun-17 23:00N 35°13' E 139°43'4 7.0
2018-Jun-17 22:29N 35°11' E 139°47'2 4.6
2018-Jun-17 22:00N 35°10' E 139°49'5 9.9
2018-Jun-17 21:30N 35°13' E 139°44'1 1.8
2018-Jun-17 21:00N 35°13' E 139°43'0 0.0
2018-Jun-17 11:11N 35°13' E 139°43'1 4.6
2018-Jun-17 10:58N 35°13' E 139°44'510.6
2018-Jun-17 10:30N 35°10' E 139°49'0 0.0
2018-Jun-17 10:00N 35°10' E 139°49'4 8.0
2018-Jun-17 09:30N 35°13' E 139°45'2 3.9
2018-Jun-17 09:00N 35°13' E 139°43'5 9.4
2018-Jun-17 08:30N 35°11' E 139°48'1 2.3
2018-Jun-17 08:00N 35°10' E 139°49'5 9.9
2018-Jun-17 07:30N 35°13' E 139°44'1 2.0
2018-Jun-17 07:00N 35°13' E 139°43'5 8.9
2018-Jun-17 06:30N 35°11' E 139°48'1 2.8
2018-Jun-17 06:00N 35°10' E 139°49'5 9.9
2018-Jun-17 05:30N 35°13' E 139°44'1 1.8
2018-Jun-17 05:00N 35°13' E 139°43'4 7.2
2018-Jun-17 04:30N 35°12' E 139°47'2 4.6
2018-Jun-17 04:00N 35°10' E 139°49'4 7.8
2018-Jun-17 03:30N 35°12' E 139°45'2 4.1
2018-Jun-17 03:00N 35°13' E 139°43'5 9.0
2018-Jun-17 02:30N 35°11' E 139°48'1 2.4
2018-Jun-17 01:59N 35°10' E 139°49'510.5
2018-Jun-17 01:29N 35°13' E 139°44'1 1.4
2018-Jun-17 01:00N 35°13' E 139°43'4 8.7
2018-Jun-17 00:30N 35°11' E 139°48'2 3.0
2018-Jun-17 00:00N 35°10' E 139°49'610.0
2018-Jun-16 23:25N 35°13' E 139°43'0 0.6
2018-Jun-16 23:00N 35°13' E 139°43'3 6.7
2018-Jun-16 22:30N 35°12' E 139°47'3 5.1
2018-Jun-16 22:00N 35°10' E 139°49'5 9.9
2018-Jun-16 21:27N 35°13' E 139°43'0 1.0
2018-Jun-16 21:00N 35°13' E 139°43'0 0.0
2018-Jun-16 11:08N 35°13' E 139°43'1 6.1
2018-Jun-16 10:57N 35°13' E 139°44'510.8
2018-Jun-16 10:30N 35°10' E 139°49'0 0.0
2018-Jun-16 10:00N 35°10' E 139°49'4 7.8
2018-Jun-16 09:30N 35°13' E 139°45'2 4.0
2018-Jun-16 09:00N 35°13' E 139°43'4 8.6
2018-Jun-16 08:30N 35°11' E 139°48'2 3.2
2018-Jun-16 08:00N 35°10' E 139°49'510.1
2018-Jun-16 07:28N 35°13' E 139°44'1 1.2
2018-Jun-16 07:00N 35°13' E 139°43'5 8.8
2018-Jun-16 06:29N 35°11' E 139°48'1 2.7
2018-Jun-16 06:00N 35°10' E 139°49'5 9.7
2018-Jun-16 05:30N 35°13' E 139°44'1 2.1
2018-Jun-16 05:00N 35°13' E 139°43'4 7.0
2018-Jun-16 04:30N 35°12' E 139°47'2 4.5
2018-Jun-16 03:59N 35°10' E 139°49'5 9.0
2018-Jun-16 03:29N 35°13' E 139°44'1 2.7
2018-Jun-16 03:00N 35°13' E 139°43'4 8.9
2018-Jun-16 02:31N 35°11' E 139°48'1 2.8
2018-Jun-16 02:00N 35°10' E 139°49'6 9.5
2018-Jun-16 01:24N 35°13' E 139°43'0 0.3
2018-Jun-16 01:00N 35°13' E 139°43'4 8.7
2018-Jun-16 00:30N 35°11' E 139°48'2 3.0
2018-Jun-16 00:00N 35°10' E 139°49'5 9.8
2018-Jun-15 23:30N 35°13' E 139°44'1 2.0
2018-Jun-15 23:00N 35°13' E 139°43'3 6.7
2018-Jun-15 22:30N 35°12' E 139°47'3 5.0
2018-Jun-15 22:00N 35°10' E 139°49'5 9.7
2018-Jun-15 21:30N 35°13' E 139°44'1 2.0
2018-Jun-15 21:00N 35°13' E 139°43'0 0.0
2018-Jun-15 11:09N 35°13' E 139°43'1 6.0
2018-Jun-15 10:59N 35°13' E 139°44'510.0
2018-Jun-15 10:29N 35°10' E 139°49'0 0.0
2018-Jun-15 10:00N 35°10' E 139°49'4 7.9
2018-Jun-15 09:30N 35°13' E 139°45'2 4.0
2018-Jun-15 09:00N 35°13' E 139°43'4 8.9
2018-Jun-15 08:30N 35°11' E 139°48'1 2.8
2018-Jun-15 08:00N 35°10' E 139°49'5 9.6
2018-Jun-15 07:30N 35°13' E 139°44'1 2.3
2018-Jun-15 07:00N 35°13' E 139°43'4 8.9
2018-Jun-15 06:30N 35°11' E 139°48'1 2.9
2018-Jun-15 06:00N 35°10' E 139°49'0 0.0
2018-Jun-15 05:30N 35°10' E 139°49'6 9.2
2018-Jun-15 04:52N 35°13' E 139°43'0 0.1
2018-Jun-15 04:30N 35°13' E 139°43'0 0.0
2018-Jun-15 04:00N 35°13' E 139°43'1 1.8
2018-Jun-15 03:28N 35°13' E 139°44'510.7
2018-Jun-15 03:00N 35°10' E 139°49'0 0.0
2018-Jun-15 02:30N 35°10' E 139°49'0 0.0
2018-Jun-15 02:00N 35°10' E 139°49'5 9.9
2018-Jun-15 01:30N 35°13' E 139°44'1 1.8
2018-Jun-15 01:00N 35°13' E 139°43'5 9.1
2018-Jun-15 00:30N 35°11' E 139°48'1 2.6
2018-Jun-15 00:01N 35°10' E 139°49'5 9.8
2018-Jun-14 23:30N 35°13' E 139°44'1 1.8
2018-Jun-14 23:00N 35°13' E 139°43'4 7.2
2018-Jun-14 22:30N 35°12' E 139°47'2 4.6
2018-Jun-14 22:00N 35°10' E 139°49'5 9.9
2018-Jun-14 21:28N 35°13' E 139°44'1 1.2
2018-Jun-14 21:00N 35°13' E 139°43'0 0.0
2018-Jun-14 11:12N 35°13' E 139°43'1 5.0
2018-Jun-14 10:59N 35°13' E 139°44'510.1
2018-Jun-14 10:30N 35°10' E 139°49'0 0.0
2018-Jun-14 10:00N 35°10' E 139°49'4 7.8
2018-Jun-14 09:30N 35°13' E 139°45'2 4.0
2018-Jun-14 09:01N 35°13' E 139°43'5 9.0
2018-Jun-14 08:29N 35°11' E 139°48'1 2.6
2018-Jun-14 08:00N 35°10' E 139°49'610.2
2018-Jun-14 07:28N 35°13' E 139°43'0 0.9
2018-Jun-14 07:00N 35°13' E 139°43'4 8.9
2018-Jun-14 06:30N 35°11' E 139°48'2 3.0
2018-Jun-14 06:00N 35°10' E 139°49'0 0.0
2018-Jun-14 05:29N 35°10' E 139°49'5 9.8
2018-Jun-14 05:00N 35°13' E 139°44'1 2.2
2018-Jun-14 04:29N 35°13' E 139°43'0 0.0
2018-Jun-14 04:00N 35°13' E 139°43'1 2.0
2018-Jun-14 03:29N 35°13' E 139°44'510.5
2018-Jun-14 03:00N 35°10' E 139°49'0 0.0
2018-Jun-14 02:30N 35°10' E 139°49'0 0.0
2018-Jun-14 02:00N 35°10' E 139°49'6 9.7
2018-Jun-14 01:24N 35°13' E 139°43'0 0.3
2018-Jun-14 01:00N 35°13' E 139°43'5 8.8
2018-Jun-14 00:29N 35°11' E 139°48'1 2.7
2018-Jun-14 00:00N 35°10' E 139°49'5 9.9
2018-Jun-13 23:30N 35°13' E 139°44'1 1.8
2018-Jun-13 23:00N 35°13' E 139°43'4 7.0
2018-Jun-13 22:30N 35°11' E 139°46'2 4.7
2018-Jun-13 22:00N 35°10' E 139°49'510.0
2018-Jun-13 21:30N 35°13' E 139°44'1 2.0
2018-Jun-13 21:00N 35°13' E 139°43'0 0.0
2018-Jun-13 11:10N 35°13' E 139°43'1 4.7
2018-Jun-13 10:59N 35°13' E 139°44'510.4
2018-Jun-13 10:30N 35°10' E 139°49'0 0.0
2018-Jun-13 10:00N 35°10' E 139°49'4 7.5
2018-Jun-13 09:30N 35°12' E 139°45'2 4.3
2018-Jun-13 09:00N 35°13' E 139°43'4 8.8
2018-Jun-13 08:30N 35°11' E 139°48'2 3.0
2018-Jun-13 08:00N 35°10' E 139°49'5 9.6
2018-Jun-13 07:30N 35°13' E 139°44'1 2.1
2018-Jun-13 07:00N 35°13' E 139°43'4 8.5
2018-Jun-13 06:30N 35°11' E 139°48'2 3.2
2018-Jun-13 06:00N 35°10' E 139°49'0 0.0
2018-Jun-13 05:30N 35°10' E 139°49'5 9.8
2018-Jun-13 05:00N 35°13' E 139°44'1 1.8
2018-Jun-13 04:30N 35°13' E 139°43'0 0.0
2018-Jun-13 04:00N 35°13' E 139°43'1 2.3
2018-Jun-13 03:30N 35°13' E 139°44'5 9.7
2018-Jun-13 03:00N 35°10' E 139°49'0 0.0
2018-Jun-13 02:30N 35°10' E 139°49'0 0.0
2018-Jun-13 02:00N 35°10' E 139°49'5 9.9
2018-Jun-13 01:29N 35°13' E 139°44'1 1.7
2018-Jun-13 01:00N 35°13' E 139°43'4 8.8
2018-Jun-13 00:30N 35°11' E 139°48'1 2.8
2018-Jun-13 00:00N 35°10' E 139°49'5 9.9
2018-Jun-12 23:30N 35°13' E 139°44'1 1.9
2018-Jun-12 23:00N 35°13' E 139°43'4 7.5
2018-Jun-12 22:30N 35°12' E 139°47'2 4.5
2018-Jun-12 22:00N 35°10' E 139°49'5 9.9
2018-Jun-12 21:30N 35°13' E 139°44'1 1.9
2018-Jun-12 21:00N 35°13' E 139°43'0 0.0
2018-Jun-12 11:08N 35°13' E 139°43'1 5.4
2018-Jun-12 10:59N 35°13' E 139°44'510.6
2018-Jun-12 10:30N 35°10' E 139°49'0 0.0
2018-Jun-12 10:00N 35°10' E 139°49'4 7.7
2018-Jun-12 09:30N 35°12' E 139°45'2 3.9
2018-Jun-12 09:00N 35°13' E 139°43'4 8.9
2018-Jun-12 08:30N 35°11' E 139°48'2 3.0
2018-Jun-12 08:00N 35°10' E 139°49'5 9.5
2018-Jun-12 07:30N 35°13' E 139°44'1 2.3
2018-Jun-12 07:00N 35°13' E 139°43'4 8.5
2018-Jun-12 06:30N 35°11' E 139°48'2 3.2
2018-Jun-12 06:00N 35°10' E 139°49'0 0.0
2018-Jun-12 05:30N 35°10' E 139°49'5 9.8
2018-Jun-12 05:00N 35°13' E 139°44'1 2.0
2018-Jun-12 04:30N 35°13' E 139°43'0 0.0
2018-Jun-12 04:00N 35°13' E 139°43'1 1.9
2018-Jun-12 03:28N 35°13' E 139°44'510.7
2018-Jun-12 03:00N 35°10' E 139°49'0 0.0
2018-Jun-12 02:30N 35°10' E 139°49'0 0.0
2018-Jun-12 02:00N 35°10' E 139°49'5 9.8
2018-Jun-12 01:30N 35°13' E 139°44'1 2.2
2018-Jun-12 01:00N 35°13' E 139°43'4 8.8
2018-Jun-12 00:30N 35°11' E 139°48'1 2.9
2018-Jun-12 00:00N 35°10' E 139°49'5 9.7
2018-Jun-11 23:30N 35°13' E 139°44'1 2.0
2018-Jun-11 23:00N 35°13' E 139°43'4 7.2
2018-Jun-11 22:30N 35°12' E 139°47'2 4.5
2018-Jun-11 22:00N 35°10' E 139°49'611.2
2018-Jun-11 21:30N 35°13' E 139°43'0 0.7
2018-Jun-11 21:00N 35°13' E 139°43'  

Dump ship's entire track history